Time;durP1;ratioP1;P1;durP2;ratioP2;P2;SDS_P1;SDS_P2;PMS_P1;PMS_P2;Temp;Humidity;BMP_temperature;BMP_pressure;BME280_temperature;BME280_humidity;BME280_pressure;Samples;Min_cycle;Max_cycle;Signal;HPM_P1;HPM_P2
2023/10/15 00:00:12;;;;;;;;;;;;;;;;;;5037488;28;4381;-48
2023/10/15 00:02:38;;;;;;;;;;;;;;;;;;5035852;28;5036;-49
2023/10/15 00:05:05;;;;;;;;;;;;;;;;;;5038233;28;1172;-48
2023/10/15 00:07:30;;;;;;;;;;;;;;;;;;5037716;28;4965;-48
2023/10/15 00:12:58;;;;;;;;;;;;;;;;;;5037538;28;4702;-47
2023/10/15 00:15:24;;;;;;;;;;;;;;;;;;5052263;28;5768;-49
2023/10/15 00:17:50;;;;;;;;;;;;;;;;;;5037166;28;4948;-49
2023/10/15 00:20:19;;;;;;;;;;;;;;;;;;5036247;28;1157;-48
2023/10/15 00:25:47;;;;;;;;;;;;;;;;;;5037073;28;4644;-48
2023/10/15 00:28:12;;;;;;;;;;;;;;;;;;5037079;28;4473;-49
2023/10/15 00:30:39;;;;;;;;;;;;;;;;;;5035863;28;4420;-50
2023/10/15 00:33:08;;;;;;;;;;;;;;;;;;5036936;28;5051;-51
2023/10/15 00:35:52;;;;;;;;;;;;;;;;;;5037053;28;5047;-47
2023/10/15 00:38:19;;;;;;;;;;;;;;;;;;5037063;28;1118;-50
2023/10/15 00:40:45;;;;;;;;;;;;;;;;;;5018881;28;4940;-49
2023/10/15 00:43:13;;;;;;;;;;;;;;;;;;5036827;28;5093;-50
2023/10/15 00:45:54;;;;;;;;;;;;;;;;;;5036752;28;5431;-49
2023/10/15 00:48:36;;;;;;;;;;;;;;;;;;5016252;28;4994;-50
2023/10/15 00:59:53;;;;;;;;;;;;;;;;;;5034913;28;4956;-49
2023/10/15 01:05:21;;;;;;;;;;;;;;;;;;5036997;28;4512;-48
2023/10/15 01:07:47;;;;;;;;;;;;;;;;;;5036006;28;5111;-48
2023/10/15 01:10:19;;;;;;;;;;;;;;;;;;5036066;28;4904;-50
2023/10/15 01:12:44;;;;;;;;;;;;;;;;;;5042607;28;4631;-48
2023/10/15 01:18:12;;;;;;;;;;;;;;;;;;5032667;28;5056;-49
2023/10/15 01:20:40;;;;;;;;;;;;;;;;;;5034745;28;4589;-48
2023/10/15 01:23:06;;;;;;;;;;;;;;;;;;5034836;28;1190;-49
2023/10/15 01:28:36;;;;;;;;;;;;;;;;;;5036598;28;5802;-48
2023/10/15 01:42:56;;;;;;;;;;;;;;;;;;5036228;28;5162;-48
2023/10/15 01:48:25;;;;;;;;;;;;;;;;;;5029551;28;5112;-45
2023/10/15 02:03:19;;;;;;;;;;;;;;;;;;5030156;28;4996;-49
2023/10/15 02:05:45;;;;;;;;;;;;;;;;;;5027291;28;5073;-46
2023/10/15 02:08:16;;;;;;;;;;;;;;;;;;5035497;28;1919;-46
2023/10/15 02:25:58;;;;;;;;;;;;;;;;;;5015729;28;4533;-48
2023/10/15 02:40:55;;;;;;;;;;;;;;;;;;5030675;28;4442;-49
2023/10/15 02:49:26;;;;;;;;;;;;;;;;;;5035194;28;4576;-52
2023/10/15 02:51:52;;;;;;;;;;;;;;;;;;5034120;28;4436;-49
2023/10/15 02:54:36;;;;;;;;;;;;;;;;;;5034185;28;5286;-49
2023/10/15 03:00:28;;;;;;;;;;;;;;;;;;5029319;28;5005;-52
2023/10/15 03:02:56;;;;;;;;;;;;;;;;;;5033066;28;4983;-52
2023/10/15 03:11:32;;;;;;;;;;;;;;;;;;5032987;28;4518;-50
2023/10/15 03:14:00;;;;;;;;;;;;;;;;;;5034418;28;1118;-49
2023/10/15 03:16:35;;;;;;;;;;;;;;;;;;5033656;28;5006;-52
2023/10/15 03:22:08;;;;;;;;;;;;;;;;;;5029228;28;4944;-49
2023/10/15 03:24:34;;;;;;;;;;;;;;;;;;5034342;28;5003;-52
2023/10/15 03:27:00;;;;;;;;;;;;;;;;;;5038188;28;4526;-49
2023/10/15 03:29:26;;;;;;;;;;;;;;;;;;5038740;28;1218;-49
2023/10/15 03:35:04;;;;;;;;;;;;;;;;;;5037100;28;5325;-51
2023/10/15 03:37:30;;;;;;;;;;;;;;;;;;5036573;28;5039;-48
2023/10/15 03:39:55;;;;;;;;;;;;;;;;;;5036539;28;4977;-49
2023/10/15 03:42:28;;;;;;;;;;;;;;;;;;5019346;28;4463;-52
2023/10/15 03:45:24;;;;;;;;;;;;;;;;;;5025832;28;4864;-51
2023/10/15 03:48:21;;;;;;;;;;;;;;;;;;5018264;28;4861;-51
2023/10/15 03:50:55;;;;;;;;;;;;;;;;;;5030866;28;5053;-52
2023/10/15 03:53:35;;;;;;;;;;;;;;;;;;5017590;28;2863;-48
2023/10/15 03:56:01;;;;;;;;;;;;;;;;;;5035158;28;5114;-48
2023/10/15 03:58:31;;;;;;;;;;;;;;;;;;5037936;28;5103;-50
2023/10/15 04:01:11;;;;;;;;;;;;;;;;;;5028127;28;4817;-52
2023/10/15 04:06:39;;;;;;;;;;;;;;;;;;5016625;28;4530;-49
2023/10/15 04:27:06;;;;;;;;;;;;;;;;;;5036691;28;5213;-49
2023/10/15 04:29:31;;;;;;;;;;;;;;;;;;5036330;28;4998;-48
2023/10/15 04:35:01;;;;;;;;;;;;;;;;;;5032437;28;4567;-52
2023/10/15 04:37:27;;;;;;;;;;;;;;;;;;5028820;28;4899;-52
2023/10/15 04:39:53;;;;;;;;;;;;;;;;;;5027319;28;4890;-52
2023/10/15 04:42:29;;;;;;;;;;;;;;;;;;5034125;28;5072;-50
2023/10/15 04:51:14;;;;;;;;;;;;;;;;;;5029527;28;5019;-50
2023/10/15 04:53:44;;;;;;;;;;;;;;;;;;5026877;28;5024;-50
2023/10/15 04:56:10;;;;;;;;;;;;;;;;;;5036029;28;1322;-52
2023/10/15 04:58:35;;;;;;;;;;;;;;;;;;5056403;28;4947;-50
2023/10/15 05:04:03;;;;;;;;;;;;;;;;;;5056548;28;5070;-52
2023/10/15 05:09:33;;;;;;;;;;;;;;;;;;5056233;28;5002;-51
2023/10/15 05:11:58;;;;;;;;;;;;;;;;;;5055749;28;4577;-53
2023/10/15 05:14:23;;;;;;;;;;;;;;;;;;5054830;28;1188;-52
2023/10/15 05:16:48;;;;;;;;;;;;;;;;;;5055898;28;4559;-51
2023/10/15 05:19:16;;;;;;;;;;;;;;;;;;5056063;28;5027;-49
2023/10/15 05:21:42;;;;;;;;;;;;;;;;;;5055944;28;4905;-50
2023/10/15 05:24:07;;;;;;;;;;;;;;;;;;5055662;28;4921;-50
2023/10/15 05:29:36;;;;;;;;;;;;;;;;;;5055690;28;5019;-52
2023/10/15 05:32:01;;;;;;;;;;;;;;;;;;5056226;28;1054;-52
2023/10/15 05:34:26;;;;;;;;;;;;;;;;;;5037629;28;5159;-53
2023/10/15 05:36:53;;;;;;;;;;;;;;;;;;5055414;28;4998;-51
2023/10/15 05:39:51;;;;;;;;;;;;;;;;;;5055793;28;4994;-52
2023/10/15 05:45:52;;;;;;;;;;;;;;;;;;5034357;28;5027;-49
2023/10/15 05:48:18;;;;;;;;;;;;;;;;;;5033578;28;4658;-51
2023/10/15 05:50:49;;;;;;;;;;;;;;;;;;5045395;28;4849;-50
2023/10/15 05:53:15;;;;;;;;;;;;;;;;;;5038367;28;1207;-50
2023/10/15 05:55:40;;;;;;;;;;;;;;;;;;5033292;28;5345;-50
2023/10/15 05:58:07;;;;;;;;;;;;;;;;;;5035054;28;4433;-52
2023/10/15 06:00:39;;;;;;;;;;;;;;;;;;5044255;28;5187;-51
2023/10/15 06:06:07;;;;;;;;;;;;;;;;;;5010550;28;4997;-53
2023/10/15 06:11:35;;;;;;;;;;;;;;;;;;5015256;28;5142;-49
2023/10/15 06:17:03;;;;;;;;;;;;;;;;;;5010409;28;4578;-50
2023/10/15 06:19:31;;;;;;;;;;;;;;;;;;5014525;28;4816;-52
2023/10/15 06:21:56;;;;;;;;;;;;;;;;;;5015250;28;4824;-51
2023/10/15 06:24:23;;;;;;;;;;;;;;;;;;5014798;28;5005;-53
2023/10/15 06:29:51;;;;;;;;;;;;;;;;;;5014963;28;4932;-50
2023/10/15 06:35:20;;;;;;;;;;;;;;;;;;5016305;28;4713;-58
2023/10/15 06:37:45;;;;;;;;;;;;;;;;;;5016381;28;5031;-60
2023/10/15 06:40:11;;;;;;;;;;;;;;;;;;5014431;28;4429;-59
2023/10/15 06:42:36;;;;;;;;;;;;;;;;;;5014840;28;4932;-58
2023/10/15 06:45:02;;;;;;;;;;;;;;;;;;5014673;28;4770;-61
2023/10/15 06:47:28;;;;;;;;;;;;;;;;;;5014932;28;1977;-58
2023/10/15 06:49:53;;;;;;;;;;;;;;;;;;5029640;28;5285;-61
2023/10/15 06:52:19;;;;;;;;;;;;;;;;;;5014550;28;4543;-58
2023/10/15 06:57:47;;;;;;;;;;;;;;;;;;5014785;28;5128;-57
2023/10/15 07:00:12;;;;;;;;;;;;;;;;;;5013943;28;5591;-58
2023/10/15 07:02:38;;;;;;;;;;;;;;;;;;5029593;28;4851;-57
2023/10/15 07:05:04;;;;;;;;;;;;;;;;;;5015037;28;1085;-58
2023/10/15 07:07:29;;;;;;;;;;;;;;;;;;5014357;28;4498;-58
2023/10/15 07:09:54;;;;;;;;;;;;;;;;;;5014334;28;5029;-58
2023/10/15 07:12:20;;;;;;;;;;;;;;;;;;5014152;28;4627;-49
2023/10/15 07:14:46;;;;;;;;;;;;;;;;;;4996343;28;4994;-52
2023/10/15 07:17:11;;;;;;;;;;;;;;;;;;5014873;28;1249;-58
2023/10/15 07:19:36;;;;;;;;;;;;;;;;;;5013914;28;4967;-59
2023/10/15 07:22:02;;;;;;;;;;;;;;;;;;5014097;28;4921;-58
2023/10/15 07:27:30;;;;;;;;;;;;;;;;;;5014483;28;5175;-59
2023/10/15 07:29:55;;;;;;;;;;;;;;;;;;5015423;28;4960;-65
2023/10/15 07:32:20;;;;;;;;;;;;;;;;;;5014873;28;1344;-61
2023/10/15 07:37:49;;;;;;;;;;;;;;;;;;5014683;28;4813;-68
2023/10/15 07:43:18;;;;;;;;;;;;;;;;;;5010631;28;5056;-57
2023/10/15 07:48:45;;;;;;;;;;;;;;;;;;5014296;28;4503;-63
2023/10/15 07:54:14;;;;;;;;;;;;;;;;;;5014079;28;4529;-50
2023/10/15 07:56:40;;;;;;;;;;;;;;;;;;5013565;28;4938;-51
2023/10/15 07:59:07;;;;;;;;;;;;;;;;;;5014405;28;1085;-49
2023/10/15 08:01:33;;;;;;;;;;;;;;;;;;5013386;28;4924;-49
2023/10/15 08:04:07;;;;;;;;;;;;;;;;;;5016782;28;4968;-61
2023/10/15 08:06:33;;;;;;;;;;;;;;;;;;5012414;28;5010;-61
2023/10/15 08:08:58;;;;;;;;;;;;;;;;;;5020520;28;4883;-63
2023/10/15 08:11:43;;;;;;;;;;;;;;;;;;5034105;28;1088;-60
2023/10/15 08:14:09;;;;;;;;;;;;;;;;;;5032486;28;4926;-50
2023/10/15 08:16:34;;;;;;;;;;;;;;;;;;5030697;28;4379;-62
2023/10/15 08:18:59;;;;;;;;;;;;;;;;;;5036920;28;4985;-51
2023/10/15 08:24:27;;;;;;;;;;;;;;;;;;5017390;28;5045;-62
2023/10/15 08:26:52;;;;;;;;;;;;;;;;;;5016927;28;4705;-61
2023/10/15 08:32:20;;;;;;;;;;;;;;;;;;5017734;28;4714;-49
2023/10/15 08:34:46;;;;;;;;;;;;;;;;;;5015138;28;4989;-46
2023/10/15 08:37:11;;;;;;;;;;;;;;;;;;5016936;28;4419;-47
2023/10/15 08:39:40;;;;;;;;;;;;;;;;;;5016636;28;5136;-45
2023/10/15 08:42:26;;;;;;;;;;;;;;;;;;5017019;28;4687;-47
2023/10/15 08:44:52;;;;;;;;;;;;;;;;;;4996581;28;4479;-46
2023/10/15 08:47:17;;;;;;;;;;;;;;;;;;4996374;28;1914;-46
2023/10/15 08:49:52;;;;;;;;;;;;;;;;;;5010298;28;4985;-46
2023/10/15 08:52:17;;;;;;;;;;;;;;;;;;4995943;28;4891;-62
2023/10/15 08:54:43;;;;;;;;;;;;;;;;;;4997138;28;4865;-45
2023/10/15 09:00:25;;;;;;;;;;;;;;;;;;4997069;28;5052;-51
2023/10/15 09:02:52;;;;;;;;;;;;;;;;;;4996335;28;4431;-49
2023/10/15 09:05:17;;;;;;;;;;;;;;;;;;4995522;28;1479;-52
2023/10/15 09:07:43;;;;;;;;;;;;;;;;;;4994762;28;4994;-48
2023/10/15 09:10:13;;;;;;;;;;;;;;;;;;4996300;28;4864;-50
2023/10/15 09:12:38;;;;;;;;;;;;;;;;;;4996451;28;4600;-50
2023/10/15 09:15:05;;;;;;;;;;;;;;;;;;4996382;28;4974;-53
2023/10/15 09:20:33;;;;;;;;;;;;;;;;;;4996947;28;4935;-50
2023/10/15 09:23:30;;;;;;;;;;;;;;;;;;5011357;28;1455;-49
2023/10/15 09:25:55;;;;;;;;;;;;;;;;;;4996422;28;4365;-51
2023/10/15 09:28:21;;;;;;;;;;;;;;;;;;4995772;28;5081;-50
2023/10/15 09:30:46;;;;;;;;;;;;;;;;;;4996372;28;4561;-49
2023/10/15 09:33:26;;;;;;;;;;;;;;;;;;4996172;28;5043;-51
2023/10/15 09:35:52;;;;;;;;;;;;;;;;;;4997189;28;5002;-49
2023/10/15 09:38:17;;;;;;;;;;;;;;;;;;5016040;28;964;-50
2023/10/15 09:43:45;;;;;;;;;;;;;;;;;;5026229;28;4403;-47
2023/10/15 09:49:13;;;;;;;;;;;;;;;;;;5035772;28;5026;-49
2023/10/15 09:54:42;;;;;;;;;;;;;;;;;;5035388;28;5016;-51
2023/10/15 10:00:19;;;;;;;;;;;;;;;;;;5035035;28;5040;-52
2023/10/15 10:05:51;;;;;;;;;;;;;;;;;;5034852;28;4991;-50
2023/10/15 10:08:31;;;;;;;;;;;;;;;;;;5025781;28;1971;-52
2023/10/15 10:11:03;;;;;;;;;;;;;;;;;;5044913;28;5030;-50
2023/10/15 10:16:31;;;;;;;;;;;;;;;;;;5034724;28;5067;-51
2023/10/15 10:21:58;;;;;;;;;;;;;;;;;;5035174;28;5108;-50
2023/10/15 10:24:24;;;;;;;;;;;;;;;;;;5034516;28;5249;-52
2023/10/15 10:26:55;;;;;;;;;;;;;;;;;;5034502;28;5112;-51
2023/10/15 10:29:26;;;;;;;;;;;;;;;;;;5035032;28;1087;-51
2023/10/15 10:31:53;;;;;;;;;;;;;;;;;;5034044;28;4907;-50
2023/10/15 10:34:29;;;;;;;;;;;;;;;;;;5033452;28;4956;-52
2023/10/15 10:46:06;;;;;;;;;;;;;;;;;;5033646;28;5281;-52
2023/10/15 10:48:37;;;;;;;;;;;;;;;;;;5033876;28;5207;-52
2023/10/15 10:51:08;;;;;;;;;;;;;;;;;;5033709;28;4546;-52
2023/10/15 10:53:33;;;;;;;;;;;;;;;;;;5033471;28;5003;-52
2023/10/15 10:56:05;;;;;;;;;;;;;;;;;;5032197;28;1404;-52
2023/10/15 11:01:42;;;;;;;;;;;;;;;;;;5014392;28;4601;-51
2023/10/15 11:04:07;;;;;;;;;;;;;;;;;;5014155;28;4578;-52
2023/10/15 11:06:33;;;;;;;;;;;;;;;;;;5030285;28;4988;-52
2023/10/15 11:12:04;;;;;;;;;;;;;;;;;;5034042;28;4683;-51
2023/10/15 11:14:29;;;;;;;;;;;;;;;;;;5034239;28;1064;-51
2023/10/15 11:16:57;;;;;;;;;;;;;;;;;;5032047;28;4883;-50
2023/10/15 11:19:30;;;;;;;;;;;;;;;;;;5031344;28;4429;-51
2023/10/15 11:24:58;;;;;;;;;;;;;;;;;;5034101;28;5059;-52
2023/10/15 11:30:26;;;;;;;;;;;;;;;;;;5033766;28;5200;-49
2023/10/15 11:32:51;;;;;;;;;;;;;;;;;;5032277;28;5057;-50
2023/10/15 11:35:17;;;;;;;;;;;;;;;;;;5031786;28;1145;-51
2023/10/15 11:37:44;;;;;;;;;;;;;;;;;;5032275;28;4962;-52
2023/10/15 11:46:16;;;;;;;;;;;;;;;;;;5033350;28;4430;-49
2023/10/15 11:48:41;;;;;;;;;;;;;;;;;;5036617;28;4928;-51
2023/10/15 11:54:31;;;;;;;;;;;;;;;;;;5037403;28;4904;-52
2023/10/15 11:57:00;;;;;;;;;;;;;;;;;;5031161;28;5136;-51
2023/10/15 11:59:25;;;;;;;;;;;;;;;;;;5032861;28;1056;-49
2023/10/15 12:01:53;;;;;;;;;;;;;;;;;;5017380;28;5020;-52
2023/10/15 12:04:19;;;;;;;;;;;;;;;;;;5020077;28;4395;-51
2023/10/15 12:06:45;;;;;;;;;;;;;;;;;;5037700;28;4990;-52
2023/10/15 12:09:16;;;;;;;;;;;;;;;;;;5037322;28;4956;-53
2023/10/15 12:17:47;;;;;;;;;;;;;;;;;;5037032;28;5046;-52
2023/10/15 12:20:13;;;;;;;;;;;;;;;;;;5036887;28;1264;-53
2023/10/15 12:22:38;;;;;;;;;;;;;;;;;;5036687;28;5026;-52
2023/10/15 12:28:07;;;;;;;;;;;;;;;;;;5036732;28;4649;-51
2023/10/15 12:33:35;;;;;;;;;;;;;;;;;;5037162;28;5022;-53
2023/10/15 12:39:05;;;;;;;;;;;;;;;;;;5036757;28;5244;-54
2023/10/15 12:41:30;;;;;;;;;;;;;;;;;;5036695;28;1081;-52
2023/10/15 12:43:58;;;;;;;;;;;;;;;;;;5036878;28;4495;-53
2023/10/15 12:46:24;;;;;;;;;;;;;;;;;;5035790;28;4449;-53
2023/10/15 12:48:49;;;;;;;;;;;;;;;;;;5035956;28;5091;-50
2023/10/15 12:51:15;;;;;;;;;;;;;;;;;;5051558;28;5049;-52
2023/10/15 12:53:40;;;;;;;;;;;;;;;;;;5036599;28;4913;-54
2023/10/15 12:56:06;;;;;;;;;;;;;;;;;;5036994;28;990;-53
2023/10/15 13:01:34;;;;;;;;;;;;;;;;;;5036078;28;4978;-53
2023/10/15 13:07:03;;;;;;;;;;;;;;;;;;5036817;28;4578;-53
2023/10/15 13:09:32;;;;;;;;;;;;;;;;;;5036037;28;5246;-53
2023/10/15 13:11:57;;;;;;;;;;;;;;;;;;5049567;28;5203;-54
2023/10/15 13:14:24;;;;;;;;;;;;;;;;;;5036663;28;1194;-53
2023/10/15 13:19:52;;;;;;;;;;;;;;;;;;5035809;28;4481;-53
2023/10/15 13:22:17;;;;;;;;;;;;;;;;;;5036297;28;5151;-54
2023/10/15 13:24:43;;;;;;;;;;;;;;;;;;5024258;28;4550;-54
2023/10/15 13:27:08;;;;;;;;;;;;;;;;;;5015990;28;4637;-53
2023/10/15 13:32:38;;;;;;;;;;;;;;;;;;5016262;28;4654;-53
2023/10/15 13:35:05;;;;;;;;;;;;;;;;;;5016038;28;1297;-54
2023/10/15 13:37:30;;;;;;;;;;;;;;;;;;5016013;28;4646;-52
2023/10/15 13:39:56;;;;;;;;;;;;;;;;;;5015727;28;5059;-54
2023/10/15 13:48:49;;;;;;;;;;;;;;;;;;5035060;28;4994;-53
2023/10/15 13:51:14;;;;;;;;;;;;;;;;;;5033722;28;5022;-54
2023/10/15 13:53:40;;;;;;;;;;;;;;;;;;5034658;28;4637;-54
2023/10/15 13:56:05;;;;;;;;;;;;;;;;;;5035381;28;1509;-54
2023/10/15 13:58:31;;;;;;;;;;;;;;;;;;5030108;28;5182;-53
2023/10/15 14:04:00;;;;;;;;;;;;;;;;;;5035544;28;4406;-53
2023/10/15 14:06:25;;;;;;;;;;;;;;;;;;5034573;28;4970;-54
2023/10/15 14:08:51;;;;;;;;;;;;;;;;;;5034599;28;4642;-53
2023/10/15 14:11:16;;;;;;;;;;;;;;;;;;5034916;28;1076;-54
2023/10/15 14:14:00;;;;;;;;;;;;;;;;;;5033734;28;5106;-55
2023/10/15 14:16:25;;;;;;;;;;;;;;;;;;5014647;28;4413;-54
2023/10/15 14:18:51;;;;;;;;;;;;;;;;;;5030362;28;4957;-53
2023/10/15 14:21:17;;;;;;;;;;;;;;;;;;5013067;28;4992;-53
2023/10/15 14:23:45;;;;;;;;;;;;;;;;;;5014688;28;4404;-51
2023/10/15 14:26:12;;;;;;;;;;;;;;;;;;5015820;28;1174;-52
2023/10/15 14:28:37;;;;;;;;;;;;;;;;;;5014962;28;4511;-54
2023/10/15 14:31:02;;;;;;;;;;;;;;;;;;5048089;28;5093;-54
2023/10/15 14:36:36;;;;;;;;;;;;;;;;;;5034874;28;5086;-53
2023/10/15 14:39:01;;;;;;;;;;;;;;;;;;5034245;28;4546;-54
2023/10/15 14:41:27;;;;;;;;;;;;;;;;;;5034749;28;1077;-54
2023/10/15 14:43:53;;;;;;;;;;;;;;;;;;5034506;28;4956;-55
2023/10/15 14:49:21;;;;;;;;;;;;;;;;;;5034349;28;4565;-56
2023/10/15 14:54:49;;;;;;;;;;;;;;;;;;5034080;28;4977;-54
2023/10/15 14:57:15;;;;;;;;;;;;;;;;;;5033953;28;4611;-54
2023/10/15 14:59:40;;;;;;;;;;;;;;;;;;5032864;28;5037;-54
2023/10/15 15:05:09;;;;;;;;;;;;;;;;;;5034750;28;4595;-53
2023/10/15 15:07:34;;;;;;;;;;;;;;;;;;5033611;28;4808;-53
2023/10/15 15:09:59;;;;;;;;;;;;;;;;;;5032891;28;4623;-54
2023/10/15 15:12:25;;;;;;;;;;;;;;;;;;5033879;28;4916;-53
2023/10/15 15:17:55;;;;;;;;;;;;;;;;;;5033792;28;5003;-54
2023/10/15 15:20:21;;;;;;;;;;;;;;;;;;5033676;28;980;-53
2023/10/15 15:22:46;;;;;;;;;;;;;;;;;;5033555;28;4975;-51
2023/10/15 15:25:11;;;;;;;;;;;;;;;;;;5033761;28;4917;-53
2023/10/15 15:30:40;;;;;;;;;;;;;;;;;;5016548;28;5294;-53
2023/10/15 15:33:06;;;;;;;;;;;;;;;;;;5014055;28;4564;-54
2023/10/15 15:35:32;;;;;;;;;;;;;;;;;;5027852;28;4924;-54
2023/10/15 15:37:57;;;;;;;;;;;;;;;;;;5013827;28;1122;-52
2023/10/15 15:43:25;;;;;;;;;;;;;;;;;;5014511;28;5086;-54
2023/10/15 15:45:51;;;;;;;;;;;;;;;;;;5012031;28;4993;-53
2023/10/15 15:48:16;;;;;;;;;;;;;;;;;;5013834;28;5031;-54
2023/10/15 15:50:42;;;;;;;;;;;;;;;;;;5013735;28;4423;-53
2023/10/15 15:53:07;;;;;;;;;;;;;;;;;;5014077;28;1188;-54
2023/10/15 15:55:33;;;;;;;;;;;;;;;;;;5021437;28;4957;-53
2023/10/15 15:57:58;;;;;;;;;;;;;;;;;;5038504;28;5128;-53
2023/10/15 16:03:26;;;;;;;;;;;;;;;;;;5033425;28;5050;-53
2023/10/15 16:08:54;;;;;;;;;;;;;;;;;;5033360;28;5021;-54
2023/10/15 16:14:22;;;;;;;;;;;;;;;;;;5033923;28;4695;-54
2023/10/15 16:16:47;;;;;;;;;;;;;;;;;;5021564;28;4997;-54
2023/10/15 16:19:12;;;;;;;;;;;;;;;;;;5013568;28;5049;-54
2023/10/15 16:21:37;;;;;;;;;;;;;;;;;;5013607;28;4989;-54
2023/10/15 16:30:11;;;;;;;;;;;;;;;;;;5033729;28;5750;-54
2023/10/15 16:32:38;;;;;;;;;;;;;;;;;;5033249;28;4498;-53
2023/10/15 16:35:04;;;;;;;;;;;;;;;;;;5037182;28;1116;-54
2023/10/15 16:37:29;;;;;;;;;;;;;;;;;;5036459;28;4673;-53
2023/10/15 16:40:08;;;;;;;;;;;;;;;;;;5036948;28;5012;-54
2023/10/15 16:42:34;;;;;;;;;;;;;;;;;;5036484;28;5033;-54
2023/10/15 16:44:59;;;;;;;;;;;;;;;;;;5036637;28;4451;-54
2023/10/15 16:50:27;;;;;;;;;;;;;;;;;;5035046;28;5309;-54
2023/10/15 16:52:52;;;;;;;;;;;;;;;;;;5052173;28;946;-53
2023/10/15 16:55:18;;;;;;;;;;;;;;;;;;5048743;28;5051;-53
2023/10/15 16:57:43;;;;;;;;;;;;;;;;;;5036571;28;5001;-54
2023/10/15 17:00:10;;;;;;;;;;;;;;;;;;5017082;28;5870;-54
2023/10/15 17:05:38;;;;;;;;;;;;;;;;;;5035974;28;4976;-53
2023/10/15 17:11:06;;;;;;;;;;;;;;;;;;5036749;28;4577;-55
2023/10/15 17:16:34;;;;;;;;;;;;;;;;;;5036616;28;5032;-54
2023/10/15 17:19:00;;;;;;;;;;;;;;;;;;5035517;28;5076;-55
2023/10/15 17:21:25;;;;;;;;;;;;;;;;;;5036095;28;4943;-53
2023/10/15 17:23:53;;;;;;;;;;;;;;;;;;5035995;28;4903;-55
2023/10/15 17:29:21;;;;;;;;;;;;;;;;;;5036707;28;4552;-54
2023/10/15 17:31:46;;;;;;;;;;;;;;;;;;5035896;28;5052;-53
2023/10/15 17:34:12;;;;;;;;;;;;;;;;;;5035636;28;4877;-54
2023/10/15 17:36:37;;;;;;;;;;;;;;;;;;5035562;28;4965;-54
2023/10/15 17:42:06;;;;;;;;;;;;;;;;;;5035648;28;4960;-54
2023/10/15 17:44:31;;;;;;;;;;;;;;;;;;5034543;28;5001;-53
2023/10/15 17:46:57;;;;;;;;;;;;;;;;;;5036116;28;1914;-54
2023/10/15 17:49:22;;;;;;;;;;;;;;;;;;5050351;28;4848;-57
2023/10/15 17:54:50;;;;;;;;;;;;;;;;;;5035549;28;4603;-53
2023/10/15 17:57:16;;;;;;;;;;;;;;;;;;5035264;28;4965;-52
2023/10/15 18:02:53;;;;;;;;;;;;;;;;;;5035023;28;5016;-47
2023/10/15 18:05:18;;;;;;;;;;;;;;;;;;5035556;28;945;-46
2023/10/15 18:07:45;;;;;;;;;;;;;;;;;;5014760;28;5056;-48
2023/10/15 18:10:10;;;;;;;;;;;;;;;;;;5015284;28;4499;-60
2023/10/15 18:15:39;;;;;;;;;;;;;;;;;;5016038;28;5034;-62
2023/10/15 18:18:06;;;;;;;;;;;;;;;;;;5015124;28;5053;-63
2023/10/15 18:20:31;;;;;;;;;;;;;;;;;;5015956;28;4827;-62
2023/10/15 18:22:59;;;;;;;;;;;;;;;;;;5016018;28;1227;-62
2023/10/15 18:28:27;;;;;;;;;;;;;;;;;;5015219;28;4612;-62
2023/10/15 18:30:53;;;;;;;;;;;;;;;;;;5029929;28;4997;-62
2023/10/15 18:33:18;;;;;;;;;;;;;;;;;;5022625;28;5160;-62
2023/10/15 18:35:43;;;;;;;;;;;;;;;;;;5014915;28;4426;-63
2023/10/15 18:38:08;;;;;;;;;;;;;;;;;;5020341;28;2915;-61
2023/10/15 18:40:34;;;;;;;;;;;;;;;;;;5034584;28;4611;-60
2023/10/15 18:43:00;;;;;;;;;;;;;;;;;;5034722;28;4568;-60
2023/10/15 18:45:25;;;;;;;;;;;;;;;;;;5034849;28;4797;-53
2023/10/15 18:50:53;;;;;;;;;;;;;;;;;;5043421;28;5164;-60
2023/10/15 18:53:19;;;;;;;;;;;;;;;;;;5054631;28;1091;-60
2023/10/15 18:58:46;;;;;;;;;;;;;;;;;;5046486;28;4630;-60
2023/10/15 19:01:12;;;;;;;;;;;;;;;;;;5054064;28;4993;-60
2023/10/15 19:03:37;;;;;;;;;;;;;;;;;;5054600;28;4478;-62
2023/10/15 19:06:03;;;;;;;;;;;;;;;;;;5034962;28;5282;-62
2023/10/15 19:08:29;;;;;;;;;;;;;;;;;;5035048;28;3254;-63
2023/10/15 19:10:54;;;;;;;;;;;;;;;;;;5032822;28;4829;-63
2023/10/15 19:13:19;;;;;;;;;;;;;;;;;;5034354;28;4432;-62
2023/10/15 19:15:55;;;;;;;;;;;;;;;;;;5029456;28;4907;-63
2023/10/15 19:18:20;;;;;;;;;;;;;;;;;;5014462;28;4471;-62
2023/10/15 19:20:46;;;;;;;;;;;;;;;;;;5048020;28;4487;-62
2023/10/15 19:23:12;;;;;;;;;;;;;;;;;;5054859;28;1289;-61
2023/10/15 19:25:38;;;;;;;;;;;;;;;;;;5020951;28;4975;-67
2023/10/15 19:31:07;;;;;;;;;;;;;;;;;;5014670;28;5080;-61
2023/10/15 19:33:32;;;;;;;;;;;;;;;;;;4997020;28;5106;-61
2023/10/15 19:35:58;;;;;;;;;;;;;;;;;;5014798;28;4853;-60
2023/10/15 19:38:24;;;;;;;;;;;;;;;;;;5014845;28;1054;-62
2023/10/15 19:43:52;;;;;;;;;;;;;;;;;;5015065;28;4914;-64
2023/10/15 19:46:18;;;;;;;;;;;;;;;;;;5014467;28;5866;-51
2023/10/15 19:48:43;;;;;;;;;;;;;;;;;;5029371;28;5236;-48
2023/10/15 19:51:09;;;;;;;;;;;;;;;;;;5013719;28;5010;-46
2023/10/15 19:56:39;;;;;;;;;;;;;;;;;;5013922;28;4603;-45
2023/10/15 19:59:05;;;;;;;;;;;;;;;;;;5014404;28;998;-48
2023/10/15 20:01:30;;;;;;;;;;;;;;;;;;5014416;28;4468;-54
2023/10/15 20:03:56;;;;;;;;;;;;;;;;;;5013740;28;5061;-61
2023/10/15 20:09:24;;;;;;;;;;;;;;;;;;5017751;28;5223;-61
2023/10/15 20:11:49;;;;;;;;;;;;;;;;;;5017527;28;4898;-50
2023/10/15 20:14:14;;;;;;;;;;;;;;;;;;5017951;28;1069;-63
2023/10/15 20:16:40;;;;;;;;;;;;;;;;;;5017271;28;4879;-57
2023/10/15 20:19:05;;;;;;;;;;;;;;;;;;5017361;28;5037;-57
2023/10/15 20:21:30;;;;;;;;;;;;;;;;;;5017260;28;5010;-57
2023/10/15 20:23:55;;;;;;;;;;;;;;;;;;5017038;28;5003;-57
2023/10/15 20:29:24;;;;;;;;;;;;;;;;;;5017780;28;4557;-57
2023/10/15 20:34:52;;;;;;;;;;;;;;;;;;5036952;28;5214;-57
2023/10/15 20:40:20;;;;;;;;;;;;;;;;;;5034226;28;4948;-57
2023/10/15 20:42:46;;;;;;;;;;;;;;;;;;5026932;28;5018;-57
2023/10/15 20:45:14;;;;;;;;;;;;;;;;;;5017017;28;5382;-57
2023/10/15 20:50:42;;;;;;;;;;;;;;;;;;5016580;28;4987;-57
2023/10/15 20:53:07;;;;;;;;;;;;;;;;;;5017597;28;1196;-58
2023/10/15 20:55:34;;;;;;;;;;;;;;;;;;5016444;28;4910;-57
2023/10/15 21:01:02;;;;;;;;;;;;;;;;;;5016692;28;5121;-57
2023/10/15 21:03:27;;;;;;;;;;;;;;;;;;5015270;28;5105;-57
2023/10/15 21:05:52;;;;;;;;;;;;;;;;;;5016669;28;4538;-57
2023/10/15 21:08:18;;;;;;;;;;;;;;;;;;5016602;28;1918;-57
2023/10/15 21:13:46;;;;;;;;;;;;;;;;;;5016791;28;4991;-57
2023/10/15 21:16:12;;;;;;;;;;;;;;;;;;5015836;28;4830;-56
2023/10/15 21:18:38;;;;;;;;;;;;;;;;;;5015819;28;5078;-57
2023/10/15 21:21:04;;;;;;;;;;;;;;;;;;5015991;28;4851;-57
2023/10/15 21:26:32;;;;;;;;;;;;;;;;;;5016807;28;4952;-57
2023/10/15 21:28:59;;;;;;;;;;;;;;;;;;5016352;28;1985;-56
2023/10/15 21:31:24;;;;;;;;;;;;;;;;;;5015902;28;4506;-57
2023/10/15 21:33:49;;;;;;;;;;;;;;;;;;5016210;28;5035;-57
2023/10/15 21:36:14;;;;;;;;;;;;;;;;;;5015964;28;4825;-57
2023/10/15 21:38:40;;;;;;;;;;;;;;;;;;4998077;28;5076;-57
2023/10/15 21:41:05;;;;;;;;;;;;;;;;;;5016649;28;1313;-57
2023/10/15 21:43:30;;;;;;;;;;;;;;;;;;5015583;28;4598;-57
2023/10/15 21:48:58;;;;;;;;;;;;;;;;;;5015767;28;5146;-56
2023/10/15 21:51:23;;;;;;;;;;;;;;;;;;5029001;28;4634;-57
2023/10/15 21:53:48;;;;;;;;;;;;;;;;;;5035797;28;4643;-57
2023/10/15 22:02:20;;;;;;;;;;;;;;;;;;5032711;28;4558;-57
2023/10/15 22:04:45;;;;;;;;;;;;;;;;;;5035042;28;5031;-57
2023/10/15 22:07:11;;;;;;;;;;;;;;;;;;5034964;28;4977;-57
2023/10/15 22:09:36;;;;;;;;;;;;;;;;;;5034998;28;4414;-57
2023/10/15 22:15:04;;;;;;;;;;;;;;;;;;5029564;28;4989;-57
2023/10/15 22:17:29;;;;;;;;;;;;;;;;;;5035100;28;969;-57
2023/10/15 22:19:55;;;;;;;;;;;;;;;;;;5035369;28;4893;-57
2023/10/15 22:22:23;;;;;;;;;;;;;;;;;;5034935;28;4968;-57
2023/10/15 22:27:51;;;;;;;;;;;;;;;;;;5035265;28;4567;-57
2023/10/15 22:30:20;;;;;;;;;;;;;;;;;;5033658;28;4990;-57
2023/10/15 22:32:45;;;;;;;;;;;;;;;;;;5034488;28;4871;-57
2023/10/15 22:35:11;;;;;;;;;;;;;;;;;;5035289;28;1294;-57
2023/10/15 22:40:40;;;;;;;;;;;;;;;;;;5034844;28;4956;-57
2023/10/15 22:43:07;;;;;;;;;;;;;;;;;;5033320;28;4461;-57
2023/10/15 22:45:33;;;;;;;;;;;;;;;;;;5034578;28;4964;-57
2023/10/15 22:47:58;;;;;;;;;;;;;;;;;;5034153;28;5010;-57
2023/10/15 22:53:26;;;;;;;;;;;;;;;;;;5034346;28;5242;-57
2023/10/15 23:01:57;;;;;;;;;;;;;;;;;;5035038;28;4557;-57
2023/10/15 23:07:25;;;;;;;;;;;;;;;;;;5034373;28;4584;-57
2023/10/15 23:09:50;;;;;;;;;;;;;;;;;;5034162;28;4989;-58
2023/10/15 23:12:15;;;;;;;;;;;;;;;;;;5034193;28;4833;-57
2023/10/15 23:14:40;;;;;;;;;;;;;;;;;;5033891;28;5129;-58
2023/10/15 23:22:58;;;;;;;;;;;;;;;;;;5034452;28;4892;-57
2023/10/15 23:25:23;;;;;;;;;;;;;;;;;;5034310;28;4602;-57
2023/10/15 23:30:55;;;;;;;;;;;;;;;;;;5034244;28;4836;-57
2023/10/15 23:33:23;;;;;;;;;;;;;;;;;;5033805;28;5006;-57
2023/10/15 23:35:49;;;;;;;;;;;;;;;;;;5033712;28;4986;-57
2023/10/15 23:38:14;;;;;;;;;;;;;;;;;;5033065;28;1088;-57
2023/10/15 23:40:40;;;;;;;;;;;;;;;;;;5033626;28;4994;-57
2023/10/15 23:43:05;;;;;;;;;;;;;;;;;;5037103;28;4811;-57
2023/10/15 23:45:31;;;;;;;;;;;;;;;;;;5037770;28;4891;-57
2023/10/15 23:50:59;;;;;;;;;;;;;;;;;;5037699;28;5117;-57
2023/10/15 23:53:30;;;;;;;;;;;;;;;;;;5036671;28;1352;-57
2023/10/15 23:56:08;;;;;;;;;;;;;;;;;;5036361;28;4979;-57
2023/10/15 23:58:36;;;;;;;;;;;;;;;;;;5037412;28;4911;-57
